Time;durP1;ratioP1;P1;durP2;ratioP2;P2;SDS_P1;SDS_P2;PMS_P1;PMS_P2;Temp;Humidity;BMP_temperature;BMP_pressure;BME280_temperature;BME280_humidity;BME280_pressure;Samples;Min_cycle;Max_cycle;Signal;HPM_P1;HPM_P2
2023/07/17 00:01:24;;;;;;;9.63;3.00;;;17.20;99.90;;;;;;6229714;22;20029;-82
2023/07/17 00:03:52;;;;;;;8.90;3.03;;;17.50;99.90;;;;;;6149537;23;20025;-81
2023/07/17 00:06:24;;;;;;;8.68;2.80;;;17.40;99.90;;;;;;6253647;22;20018;-81
2023/07/17 00:08:53;;;;;;;8.40;3.15;;;17.50;99.90;;;;;;6252328;22;20021;-81
2023/07/17 00:11:25;;;;;;;8.77;3.00;;;17.50;99.90;;;;;;6253754;22;20026;-81
2023/07/17 00:13:54;;;;;;;9.68;3.05;;;17.30;99.90;;;;;;6252670;22;20078;-81
2023/07/17 00:16:23;;;;;;;11.70;3.47;;;17.30;99.90;;;;;;6150029;23;20018;-81
2023/07/17 00:19:17;;;;;;;9.45;2.95;;;17.30;99.90;;;;;;6253191;22;20021;-81
2023/07/17 00:21:42;;;;;;;9.18;3.22;;;17.30;99.90;;;;;;6148210;22;20026;-81
2023/07/17 00:24:08;;;;;;;10.00;3.13;;;17.30;99.90;;;;;;6149843;23;20150;-81
2023/07/17 00:26:49;;;;;;;8.82;3.35;;;17.30;99.90;;;;;;6150632;23;20029;-81
2023/07/17 00:29:28;;;;;;;8.32;2.80;;;17.20;99.90;;;;;;6150675;23;20013;-81
2023/07/17 00:32:52;;;;;;;8.85;3.05;;;17.20;99.90;;;;;;6253414;22;20022;-81
2023/07/17 00:35:24;;;;;;;9.52;2.75;;;16.80;99.90;;;;;;6249663;22;20025;-81
2023/07/17 00:38:07;;;;;;;10.52;3.05;;;17.30;99.90;;;;;;6149410;23;20081;-81
2023/07/17 00:40:51;;;;;;;9.17;3.03;;;17.30;99.90;;;;;;6253201;22;20017;-81
2023/07/17 00:43:17;;;;;;;;;;;17.30;99.90;;;;;;6151355;23;20568;-81
2023/07/17 00:45:56;;;;;;;9.52;3.13;;;17.30;99.90;;;;;;6149656;23;19987;-81
2023/07/17 00:48:33;;;;;;;9.05;2.97;;;17.30;99.90;;;;;;6255568;22;20465;-81
2023/07/17 00:51:42;;;;;;;10.05;3.10;;;17.30;99.90;;;;;;6151716;23;20078;-81
2023/07/17 00:54:14;;;;;;;9.32;3.10;;;17.30;99.90;;;;;;6184054;23;20552;-81
2023/07/17 00:56:53;;;;;;;10.18;3.33;;;17.30;99.90;;;;;;6158460;23;20025;-81
2023/07/17 00:59:27;;;;;;;11.70;3.35;;;17.30;99.90;;;;;;6183010;23;20092;-81
2023/07/17 01:02:01;;;;;;;10.60;3.40;;;17.30;99.90;;;;;;6182994;23;20096;-81
2023/07/17 01:04:47;;;;;;;10.30;3.13;;;17.30;99.90;;;;;;6183841;23;20013;-81
2023/07/17 01:07:34;;;;;;;9.50;3.15;;;17.20;99.90;;;;;;6158540;23;20017;-81
2023/07/17 01:10:00;;;;;;;8.93;2.85;;;17.20;99.90;;;;;;6183870;22;20026;-81
2023/07/17 01:12:43;;;;;;;8.48;2.97;;;17.20;99.90;;;;;;6254077;22;20388;-81
2023/07/17 01:15:14;;;;;;;9.88;3.00;;;17.10;99.90;;;;;;6151598;23;20097;-81
2023/07/17 01:18:02;;;;;;;9.38;3.03;;;17.10;99.90;;;;;;6254218;22;20020;-81
2023/07/17 01:20:43;;;;;;;8.00;2.83;;;17.10;99.90;;;;;;6253361;22;20392;-81
2023/07/17 01:23:35;;;;;;;9.30;2.67;;;17.10;99.90;;;;;;6151125;23;20021;-81
2023/07/17 01:26:17;;;;;;;9.15;3.05;;;17.00;99.90;;;;;;6150468;23;20018;-81
2023/07/17 01:28:43;;;;;;;10.48;2.95;;;17.00;99.90;;;;;;6151408;23;20027;-81
2023/07/17 01:31:13;;;;;;;9.55;3.00;;;16.90;99.90;;;;;;6151063;23;20020;-81
2023/07/17 01:33:52;;;;;;;10.27;3.08;;;17.20;99.90;;;;;;6252042;22;20406;-81
2023/07/17 01:36:20;;;;;;;10.07;2.88;;;16.90;99.90;;;;;;6151492;23;20517;-81
2023/07/17 01:38:58;;;;;;;9.30;3.20;;;16.90;99.90;;;;;;6254288;22;20025;-81
2023/07/17 01:41:23;;;;;;;9.52;3.28;;;16.50;99.90;;;;;;6253244;22;20106;-81
2023/07/17 01:44:01;;;;;;;10.57;3.60;;;16.90;99.90;;;;;;6254193;22;20021;-81
2023/07/17 01:46:26;;;;;;;10.57;3.42;;;16.80;99.90;;;;;;6151616;23;20013;-81
2023/07/17 01:48:52;;;;;;;12.38;3.65;;;17.30;99.90;;;;;;6253364;22;20108;-81
2023/07/17 01:51:18;;;;;;;10.63;3.75;;;16.80;99.90;;;;;;6254165;22;20037;-81
2023/07/17 01:53:49;;;;;;;8.52;3.00;;;16.80;99.90;;;;;;6253556;22;20025;-81
2023/07/17 01:56:15;;;;;;;9.70;3.10;;;17.30;99.90;;;;;;6151401;23;20426;-81
2023/07/17 01:59:06;;;;;;;8.68;3.15;;;16.70;99.90;;;;;;6151333;22;20079;-81
2023/07/17 02:01:50;;;;;;;9.75;3.40;;;16.70;99.90;;;;;;6206220;22;20021;-81
2023/07/17 02:04:16;;;;;;;9.32;3.05;;;16.60;99.90;;;;;;6151593;23;20020;-80
2023/07/17 02:06:45;;;;;;;9.68;3.10;;;16.50;99.90;;;;;;6150368;23;20053;-81
2023/07/17 02:09:26;;;;;;;10.13;2.97;;;16.50;99.90;;;;;;6252579;22;20033;-81
2023/07/17 02:12:07;;;;;;;10.52;3.22;;;16.50;99.90;;;;;;6254476;22;20401;-81
2023/07/17 02:14:33;;;;;;;10.63;3.08;;;16.20;99.90;;;;;;6151344;23;20021;-81
2023/07/17 02:16:58;;;;;;;10.45;3.45;;;16.40;99.90;;;;;;6150813;23;20058;-80
2023/07/17 02:19:24;;;;;;;9.43;3.22;;;16.30;99.90;;;;;;6151793;23;20025;-81
2023/07/17 02:21:49;;;;;;;9.65;3.30;;;16.30;99.90;;;;;;6150464;23;20024;-81
2023/07/17 02:24:15;;;;;;;9.82;3.22;;;16.20;99.90;;;;;;6253005;22;20009;-81
2023/07/17 02:26:41;;;;;;;10.60;3.60;;;16.20;99.90;;;;;;6253263;22;20013;-81
2023/07/17 02:29:06;;;;;;;13.00;3.80;;;16.20;99.90;;;;;;6252761;22;20372;-80
2023/07/17 02:31:32;;;;;;;12.38;3.60;;;16.10;99.90;;;;;;6150761;23;20353;-81
2023/07/17 02:33:58;;;;;;;10.45;3.50;;;16.50;99.90;;;;;;6254099;22;20010;-81
2023/07/17 02:36:23;;;;;;;9.65;3.53;;;16.50;99.90;;;;;;6252578;22;20052;-81
2023/07/17 02:38:49;;;;;;;8.98;3.53;;;16.40;99.90;;;;;;6253576;22;20342;-81
2023/07/17 02:41:15;;;;;;;8.95;3.35;;;16.00;99.90;;;;;;6151331;23;20089;-81
2023/07/17 02:43:40;;;;;;;10.30;3.38;;;16.00;99.90;;;;;;6252673;22;20122;-81
2023/07/17 02:46:06;;;;;;;10.05;3.80;;;15.90;99.90;;;;;;6253850;22;20020;-81
2023/07/17 02:48:32;;;;;;;9.98;3.33;;;15.90;99.90;;;;;;6150800;23;20337;-81
2023/07/17 02:50:57;;;;;;;10.43;4.03;;;15.90;99.90;;;;;;6252691;22;20067;-81
2023/07/17 02:53:23;;;;;;;12.70;3.97;;;15.80;99.90;;;;;;6253860;22;20053;-81
2023/07/17 02:55:49;;;;;;;10.18;3.88;;;15.70;99.90;;;;;;6151183;23;20017;-81
2023/07/17 02:58:17;;;;;;;10.48;4.03;;;15.70;99.90;;;;;;6150462;22;20049;-81
2023/07/17 03:00:44;;;;;;;11.23;3.63;;;15.60;99.90;;;;;;6253087;22;20480;-81
2023/07/17 03:03:10;;;;;;;11.25;3.80;;;15.60;99.90;;;;;;6253485;22;20480;-81
2023/07/17 03:05:36;;;;;;;10.35;4.00;;;15.50;99.90;;;;;;6149773;23;20013;-81
2023/07/17 03:08:02;;;;;;;11.75;3.63;;;15.40;99.90;;;;;;6253555;22;20100;-81
2023/07/17 03:10:29;;;;;;;9.57;3.15;;;15.40;99.90;;;;;;6150834;23;20040;-81
2023/07/17 03:12:56;;;;;;;10.05;3.58;;;15.40;99.90;;;;;;6252563;22;20104;-81
2023/07/17 03:15:21;;;;;;;13.07;4.05;;;15.30;99.90;;;;;;6253326;22;20387;-81
2023/07/17 03:17:47;;;;;;;9.85;3.80;;;15.30;99.90;;;;;;6150925;22;20013;-81
2023/07/17 03:20:13;;;;;;;9.38;4.18;;;15.20;99.90;;;;;;6149871;23;20017;-81
2023/07/17 03:22:39;;;;;;;11.73;3.88;;;15.20;99.90;;;;;;6253157;22;20032;-81
2023/07/17 03:25:06;;;;;;;13.70;3.83;;;15.20;99.90;;;;;;6253705;22;20026;-81
2023/07/17 03:27:32;;;;;;;10.80;4.28;;;15.20;99.90;;;;;;6149719;23;20075;-81
2023/07/17 03:29:58;;;;;;;10.48;4.15;;;15.10;99.90;;;;;;6253679;22;20013;-81
2023/07/17 03:32:23;;;;;;;15.43;4.65;;;15.10;99.90;;;;;;6150137;23;20020;-81
2023/07/17 03:34:49;;;;;;;10.90;4.20;;;14.90;99.90;;;;;;6252869;22;20019;-81
2023/07/17 03:37:15;;;;;;;11.25;4.32;;;15.40;99.90;;;;;;6150813;23;20017;-81
2023/07/17 03:39:40;;;;;;;11.90;4.28;;;15.20;99.90;;;;;;6252200;22;20795;-81
2023/07/17 03:42:10;;;;;;;11.02;4.20;;;14.90;99.90;;;;;;6151094;23;20048;-81
2023/07/17 03:44:37;;;;;;;10.13;3.95;;;14.80;99.90;;;;;;6150450;23;20014;-81
2023/07/17 03:47:03;;;;;;;11.10;4.20;;;15.70;99.90;;;;;;6149694;23;20331;-81
2023/07/17 03:49:29;;;;;;;10.93;4.38;;;14.70;99.90;;;;;;6252768;22;20028;-81
2023/07/17 03:51:55;;;;;;;11.55;4.03;;;14.70;99.90;;;;;;6150886;23;20014;-81
2023/07/17 03:54:20;;;;;;;11.50;4.30;;;14.70;99.90;;;;;;6149891;23;20070;-81
2023/07/17 03:56:46;;;;;;;13.90;4.07;;;15.10;99.90;;;;;;6252767;22;20014;-81
2023/07/17 03:59:12;;;;;;;12.30;4.22;;;15.30;99.90;;;;;;6150422;22;20035;-81
2023/07/17 04:01:37;;;;;;;13.25;4.35;;;14.80;99.90;;;;;;6251421;22;20492;-81
2023/07/17 04:04:05;;;;;;;12.25;4.35;;;14.70;99.90;;;;;;6150163;23;20093;-81
2023/07/17 04:06:30;;;;;;;10.23;4.20;;;14.70;99.90;;;;;;6252425;22;20049;-81
2023/07/17 04:08:56;;;;;;;13.73;4.28;;;15.40;99.90;;;;;;6252018;22;20472;-80
2023/07/17 04:11:22;;;;;;;13.30;4.70;;;14.60;99.90;;;;;;6150687;23;20025;-80
2023/07/17 04:13:48;;;;;;;10.90;4.10;;;15.10;99.90;;;;;;6252866;22;20422;-80
2023/07/17 04:16:15;;;;;;;10.48;4.22;;;15.50;99.90;;;;;;6252332;22;20045;-81
2023/07/17 04:18:40;;;;;;;9.75;3.80;;;15.30;99.90;;;;;;6150270;23;20091;-81
2023/07/17 04:21:06;;;;;;;12.18;4.35;;;14.70;99.90;;;;;;6150668;22;20386;-81
2023/07/17 04:23:32;;;;;;;10.75;4.50;;;14.80;99.90;;;;;;6150835;23;20022;-80
2023/07/17 04:25:57;;;;;;;11.25;3.90;;;14.80;99.90;;;;;;6152173;23;20025;-80
2023/07/17 04:28:23;;;;;;;13.00;4.18;;;14.90;99.90;;;;;;6151805;23;20020;-80
2023/07/17 04:30:49;;;;;;;14.93;3.88;;;14.90;99.90;;;;;;6253777;22;20032;-80
2023/07/17 04:33:14;;;;;;;10.07;3.95;;;15.00;99.90;;;;;;6257012;22;20018;-80
2023/07/17 04:35:40;;;;;;;10.30;3.97;;;15.00;99.90;;;;;;6256740;22;20524;-81
2023/07/17 04:38:06;;;;;;;11.63;3.78;;;15.10;99.90;;;;;;6257369;22;20009;-80
2023/07/17 04:40:31;;;;;;;12.18;3.70;;;15.10;99.90;;;;;;6256853;22;20030;-80
2023/07/17 04:43:00;;;;;;;10.68;3.90;;;15.20;99.90;;;;;;6254688;22;20021;-79
2023/07/17 04:45:26;;;;;;;11.63;4.25;;;15.30;99.90;;;;;;6153990;23;20032;-80
2023/07/17 04:47:53;;;;;;;12.07;4.13;;;15.30;99.90;;;;;;6154401;23;20018;-81
2023/07/17 04:50:19;;;;;;;12.13;4.00;;;15.30;99.90;;;;;;6152802;23;20495;-81
2023/07/17 04:52:47;;;;;;;9.93;4.15;;;15.30;99.90;;;;;;6153667;23;20021;-81
2023/07/17 04:55:13;;;;;;;10.57;4.82;;;16.10;99.90;;;;;;6256458;22;20018;-80
2023/07/17 04:57:38;;;;;;;14.30;6.95;;;15.40;99.90;;;;;;6255019;22;20067;-80
2023/07/17 05:00:05;;;;;;;17.27;7.38;;;15.40;99.90;;;;;;6153581;23;20068;-81
2023/07/17 05:02:31;;;;;;;14.07;6.15;;;15.50;99.90;;;;;;6257099;22;20025;-81
2023/07/17 05:04:57;;;;;;;12.93;5.10;;;15.50;99.90;;;;;;6258811;22;20010;-81
2023/07/17 05:07:23;;;;;;;13.63;4.90;;;15.50;99.90;;;;;;6254845;22;20017;-81
2023/07/17 05:09:48;;;;;;;13.20;5.30;;;15.60;99.90;;;;;;6254067;22;20075;-81
2023/07/17 05:12:14;;;;;;;13.80;5.90;;;15.60;99.90;;;;;;6150809;23;20100;-81
2023/07/17 05:14:39;;;;;;;11.63;5.13;;;15.60;99.90;;;;;;6150944;23;20025;-81
2023/07/17 05:17:05;;;;;;;13.32;5.10;;;15.60;99.90;;;;;;6254282;22;20022;-81
2023/07/17 05:19:31;;;;;;;11.90;4.28;;;15.70;99.90;;;;;;6150322;23;20021;-81
2023/07/17 05:21:57;;;;;;;13.50;5.28;;;15.80;99.90;;;;;;6253721;22;20028;-81
2023/07/17 05:24:22;;;;;;;11.68;4.13;;;15.80;99.90;;;;;;6253486;22;20070;-81
2023/07/17 05:27:05;;;;;;;10.95;4.05;;;15.70;99.90;;;;;;6252722;22;20410;-80
2023/07/17 05:29:30;;;;;;;16.83;4.57;;;15.80;99.90;;;;;;6151404;23;20075;-81
2023/07/17 05:31:56;;;;;;;11.38;4.43;;;15.90;99.90;;;;;;6252824;22;20018;-81
2023/07/17 05:34:21;;;;;;;12.20;4.25;;;15.90;99.90;;;;;;6151035;23;20101;-80
2023/07/17 05:36:47;;;;;;;13.25;4.00;;;16.00;99.90;;;;;;6253431;22;20018;-81
2023/07/17 05:39:28;;;;;;;12.45;3.83;;;16.10;99.90;;;;;;6150659;23;20411;-81
2023/07/17 05:41:54;;;;;;;11.73;4.00;;;16.00;99.90;;;;;;6254099;22;20021;-81
2023/07/17 05:44:19;;;;;;;10.82;4.00;;;16.00;99.90;;;;;;6254453;22;20334;-81
2023/07/17 05:46:45;;;;;;;10.82;3.92;;;16.10;99.90;;;;;;6253112;22;20461;-81
2023/07/17 05:49:18;;;;;;;12.63;3.80;;;16.30;99.90;;;;;;6254026;22;20056;-80
2023/07/17 05:51:44;;;;;;;11.93;3.67;;;16.70;99.90;;;;;;6254125;22;20026;-81
2023/07/17 05:54:22;;;;;;;14.18;3.90;;;16.20;99.90;;;;;;6253289;22;20442;-79
2023/07/17 05:56:47;;;;;;;11.13;4.07;;;16.20;99.90;;;;;;6254663;22;20428;-80
2023/07/17 05:59:13;;;;;;;12.13;4.15;;;16.50;99.90;;;;;;6254083;22;20026;-80
2023/07/17 06:01:39;;;;;;;11.60;3.78;;;16.30;99.90;;;;;;6150409;23;20021;-80
2023/07/17 06:04:04;;;;;;;11.90;4.07;;;16.70;99.90;;;;;;6151573;23;20132;-80
2023/07/17 06:06:31;;;;;;;12.50;4.30;;;16.30;99.90;;;;;;6151060;22;20092;-80
2023/07/17 06:09:00;;;;;;;15.77;4.43;;;16.40;99.90;;;;;;6253113;22;20467;-80
2023/07/17 06:11:26;;;;;;;13.75;4.80;;;16.40;99.90;;;;;;6151253;23;20016;-80
2023/07/17 06:13:51;;;;;;;12.95;4.22;;;16.50;99.90;;;;;;6151237;23;20045;-80
2023/07/17 06:16:17;;;;;;;14.25;4.47;;;16.50;99.90;;;;;;6253375;22;20395;-80
2023/07/17 06:18:43;;;;;;;14.60;4.60;;;16.50;99.90;;;;;;6253265;22;20025;-80
2023/07/17 06:21:09;;;;;;;16.17;4.45;;;16.90;99.90;;;;;;6252677;22;20022;-80
2023/07/17 06:23:34;;;;;;;12.20;4.28;;;16.60;99.90;;;;;;6252988;22;20438;-80
2023/07/17 06:26:00;;;;;;;13.07;4.65;;;16.70;99.90;;;;;;6253918;22;20467;-80
2023/07/17 06:28:27;;;;;;;15.23;4.63;;;16.70;99.90;;;;;;6253208;22;20028;-80
2023/07/17 06:30:53;;;;;;;16.05;5.28;;;16.70;99.90;;;;;;6254095;22;20101;-79
2023/07/17 06:33:19;;;;;;;13.50;4.75;;;16.80;99.90;;;;;;6253529;22;20465;-80
2023/07/17 06:35:45;;;;;;;12.95;5.45;;;16.80;99.90;;;;;;6252339;22;20055;-81
2023/07/17 06:38:11;;;;;;;14.82;5.03;;;16.90;99.90;;;;;;6151703;22;20450;-80
2023/07/17 06:40:38;;;;;;;15.68;4.60;;;17.00;99.90;;;;;;6150891;22;20016;-80
2023/07/17 06:43:03;;;;;;;13.93;4.68;;;17.00;99.90;;;;;;6150033;23;20035;-80
2023/07/17 06:45:29;;;;;;;16.05;5.15;;;17.10;99.90;;;;;;6149860;23;20009;-80
2023/07/17 06:47:55;;;;;;;16.77;4.88;;;17.10;99.90;;;;;;6151395;23;20022;-80
2023/07/17 06:50:21;;;;;;;14.70;4.70;;;17.20;99.90;;;;;;6150719;22;20020;-80
2023/07/17 06:52:46;;;;;;;14.50;4.85;;;17.20;99.90;;;;;;6250996;22;20376;-79
2023/07/17 06:55:12;;;;;;;12.80;4.78;;;17.20;99.90;;;;;;6151356;23;20391;-79
2023/07/17 06:57:40;;;;;;;16.20;5.38;;;17.30;99.90;;;;;;6150033;23;20331;-79
2023/07/17 07:00:06;;;;;;;14.23;4.95;;;17.40;99.90;;;;;;6253301;22;20025;-79
2023/07/17 07:02:32;;;;;;;18.40;5.55;;;17.50;99.90;;;;;;6252840;22;20625;-78
2023/07/17 07:04:57;;;;;;;14.10;4.60;;;17.80;99.90;;;;;;6150593;22;20025;-79
2023/07/17 07:07:23;;;;;;;17.38;4.50;;;17.80;99.90;;;;;;6150567;23;20402;-79
2023/07/17 07:09:49;;;;;;;15.20;5.00;;;17.80;99.90;;;;;;6150847;23;20052;-78
2023/07/17 07:12:15;;;;;;;15.65;5.10;;;17.70;99.90;;;;;;6252386;22;20053;-79
2023/07/17 07:14:41;;;;;;;13.90;5.05;;;17.90;99.90;;;;;;6150880;23;20018;-79
2023/07/17 07:17:07;;;;;;;13.65;5.25;;;17.90;99.90;;;;;;6151477;22;20044;-79
2023/07/17 07:19:33;;;;;;;13.80;4.90;;;18.00;99.90;;;;;;6149812;23;20045;-79
2023/07/17 07:21:59;;;;;;;16.33;4.90;;;18.10;99.90;;;;;;6150317;23;20070;-78
2023/07/17 07:24:25;;;;;;;16.40;5.22;;;18.10;99.90;;;;;;6252380;22;20338;-80
2023/07/17 07:26:50;;;;;;;15.07;4.85;;;18.20;99.90;;;;;;6150611;23;20092;-80
2023/07/17 07:29:16;;;;;;;14.85;5.20;;;18.20;99.90;;;;;;6150572;23;20021;-79
2023/07/17 07:31:41;;;;;;;15.35;5.10;;;18.40;99.90;;;;;;6251642;22;20026;-79
2023/07/17 07:34:07;;;;;;;13.88;4.80;;;18.20;99.90;;;;;;6253362;22;20009;-79
2023/07/17 07:36:33;;;;;;;15.68;4.95;;;18.20;99.90;;;;;;6252019;22;20101;-79
2023/07/17 07:38:59;;;;;;;14.20;5.28;;;18.20;99.90;;;;;;6149765;23;20081;-79
2023/07/17 07:41:25;;;;;;;15.65;4.40;;;18.10;99.90;;;;;;6253546;22;20021;-79
2023/07/17 07:43:50;;;;;;;13.63;5.20;;;18.10;99.90;;;;;;6150658;23;20089;-79
2023/07/17 07:46:16;;;;;;;14.07;4.70;;;17.90;99.90;;;;;;6252227;22;20029;-80
2023/07/17 07:48:42;;;;;;;13.55;4.90;;;18.00;99.90;;;;;;6150502;23;20028;-80
2023/07/17 07:51:07;;;;;;;12.88;4.68;;;18.10;99.90;;;;;;6252904;22;20025;-79
2023/07/17 07:53:33;;;;;;;15.80;5.40;;;18.20;99.90;;;;;;6149801;23;20021;-79
2023/07/17 07:56:00;;;;;;;12.13;4.60;;;18.20;99.90;;;;;;6254099;22;20017;-79
2023/07/17 07:58:26;;;;;;;12.95;4.43;;;18.10;99.90;;;;;;6255153;22;20018;-79
2023/07/17 08:00:52;;;;;;;14.70;4.63;;;18.10;99.90;;;;;;6253639;22;20028;-79
2023/07/17 08:03:18;;;;;;;12.25;4.50;;;18.20;99.90;;;;;;6254942;22;20018;-79
2023/07/17 08:05:44;;;;;;;14.32;4.80;;;18.40;99.90;;;;;;6151408;23;20329;-79
2023/07/17 08:08:09;;;;;;;12.10;3.83;;;18.40;99.90;;;;;;6254063;22;20408;-79
2023/07/17 08:10:37;;;;;;;13.43;4.72;;;18.60;99.90;;;;;;6151540;23;20013;-79
2023/07/17 08:13:04;;;;;;;15.63;4.80;;;18.60;99.90;;;;;;6255190;22;20110;-80
2023/07/17 08:15:30;;;;;;;12.57;4.65;;;18.80;99.90;;;;;;6150629;23;20079;-79
2023/07/17 08:17:55;;;;;;;12.55;4.50;;;18.90;99.90;;;;;;6255091;22;20367;-79
2023/07/17 08:20:21;;;;;;;11.02;3.95;;;19.00;99.90;;;;;;6254630;22;20018;-80
2023/07/17 08:22:48;;;;;;;15.07;4.93;;;19.10;99.90;;;;;;6150535;23;20100;-79
2023/07/17 08:25:14;;;;;;;14.85;4.47;;;19.30;99.90;;;;;;6229223;22;20021;-80
2023/07/17 08:27:39;;;;;;;12.98;4.20;;;19.50;99.90;;;;;;6254028;22;20083;-79
2023/07/17 08:30:06;;;;;;;10.80;4.03;;;19.60;99.90;;;;;;6254253;22;20067;-80
2023/07/17 08:32:32;;;;;;;12.45;4.40;;;19.60;99.90;;;;;;6151616;23;20024;-80
2023/07/17 08:34:58;;;;;;;11.85;4.20;;;19.80;99.90;;;;;;6253384;22;20369;-80
2023/07/17 08:37:23;;;;;;;13.55;4.47;;;19.80;99.90;;;;;;6151762;23;20025;-79
2023/07/17 08:39:49;;;;;;;10.85;4.32;;;19.90;99.90;;;;;;6151362;23;20025;-79
2023/07/17 08:42:15;;;;;;;12.38;4.35;;;19.80;99.90;;;;;;6150203;23;20029;-80
2023/07/17 08:44:40;;;;;;;10.90;3.92;;;19.70;99.90;;;;;;6151257;23;20048;-79
2023/07/17 08:47:08;;;;;;;12.18;4.03;;;19.80;99.90;;;;;;6151920;23;20029;-80
2023/07/17 08:49:35;;;;;;;11.15;3.85;;;20.10;99.90;;;;;;6253225;22;20351;-79
2023/07/17 08:52:03;;;;;;;12.65;4.20;;;20.00;99.90;;;;;;6254740;22;20434;-80
2023/07/17 08:54:29;;;;;;;13.57;4.65;;;19.70;99.90;;;;;;6151759;23;20064;-80
2023/07/17 08:57:04;;;;;;;12.20;4.18;;;19.60;99.90;;;;;;6150605;23;20437;-80
2023/07/17 08:59:36;;;;;;;12.10;4.15;;;19.40;99.90;;;;;;6254420;22;20013;-79
2023/07/17 09:02:06;;;;;;;10.57;4.00;;;19.50;99.90;;;;;;6151754;23;20105;-80
2023/07/17 09:04:33;;;;;;;13.77;4.53;;;19.70;99.90;;;;;;6150746;23;20013;-80
2023/07/17 09:07:05;;;;;;;11.57;4.00;;;19.50;99.90;;;;;;6253902;22;20013;-80
2023/07/17 09:09:31;;;;;;;12.48;4.30;;;19.50;99.90;;;;;;6150882;23;20505;-80
2023/07/17 09:12:07;;;;;;;13.75;4.60;;;19.30;99.90;;;;;;6253313;22;20014;-80
2023/07/17 09:14:34;;;;;;;11.05;4.55;;;19.40;99.90;;;;;;6254041;22;20026;-80
2023/07/17 09:17:02;;;;;;;13.25;4.75;;;19.40;99.90;;;;;;6151018;22;20013;-80
2023/07/17 09:19:32;;;;;;;11.80;4.20;;;19.70;99.90;;;;;;6151529;23;20032;-80
2023/07/17 09:21:59;;;;;;;11.07;4.38;;;20.00;99.90;;;;;;6253817;22;20021;-80
2023/07/17 09:24:27;;;;;;;12.77;4.45;;;20.30;99.90;;;;;;6150300;23;20013;-80
2023/07/17 09:26:59;;;;;;;11.02;3.80;;;20.80;99.90;;;;;;6151069;23;20021;-80
2023/07/17 09:29:26;;;;;;;12.70;4.00;;;20.90;99.90;;;;;;6151258;23;20473;-80
2023/07/17 09:31:52;;;;;;;11.90;3.58;;;20.60;99.90;;;;;;6149998;23;20060;-80
2023/07/17 09:34:18;;;;;;;14.90;4.22;;;20.40;99.90;;;;;;6254421;22;20025;-80
2023/07/17 09:36:48;;;;;;;11.88;4.40;;;20.70;99.90;;;;;;6253886;22;20021;-80
2023/07/17 09:39:14;;;;;;;10.88;3.78;;;21.20;99.90;;;;;;6151286;22;20024;-80
2023/07/17 09:41:39;;;;;;;11.57;3.90;;;21.30;99.90;;;;;;6253911;22;20026;-80
2023/07/17 09:44:07;;;;;;;10.70;4.03;;;20.90;99.90;;;;;;6151054;23;20025;-80
2023/07/17 09:46:37;;;;;;;12.70;4.20;;;20.20;99.90;;;;;;6252667;22;20017;-79
2023/07/17 09:49:04;;;;;;;11.80;4.20;;;19.40;99.90;;;;;;6254319;22;20021;-80
2023/07/17 09:51:30;;;;;;;9.52;3.20;;;19.20;99.90;;;;;;6253247;22;20028;-80
2023/07/17 09:53:59;;;;;;;9.25;3.10;;;18.60;99.90;;;;;;6250741;22;20337;-78
2023/07/17 09:56:29;;;;;;;9.38;3.42;;;18.50;99.90;;;;;;6252036;22;20017;-79
2023/07/17 09:59:07;;;;;;;8.77;3.20;;;18.50;99.90;;;;;;6253759;22;20333;-79
2023/07/17 10:01:33;;;;;;;9.60;3.22;;;18.30;99.90;;;;;;6251779;22;20033;-80
2023/07/17 10:04:04;;;;;;;11.02;3.67;;;18.30;99.90;;;;;;6253846;22;20018;-80
2023/07/17 10:06:31;;;;;;;10.52;3.80;;;18.20;99.90;;;;;;6252066;22;20528;-79
2023/07/17 10:09:01;;;;;;;11.15;3.67;;;18.10;99.90;;;;;;6151456;23;20063;-80
2023/07/17 10:11:27;;;;;;;11.35;4.18;;;18.20;99.90;;;;;;6151036;23;20017;-81
2023/07/17 10:13:55;;;;;;;12.07;4.10;;;18.30;99.90;;;;;;6150373;22;20017;-79
2023/07/17 10:16:24;;;;;;;11.80;4.03;;;18.30;99.90;;;;;;6253998;22;20368;-80
2023/07/17 10:18:53;;;;;;;12.38;4.47;;;18.40;99.90;;;;;;6253023;22;20029;-80
2023/07/17 10:21:20;;;;;;;12.98;4.05;;;18.40;99.90;;;;;;6252273;22;20026;-80
2023/07/17 10:23:47;;;;;;;13.90;4.10;;;18.50;99.90;;;;;;6253406;22;20105;-80
2023/07/17 10:26:16;;;;;;;11.50;4.03;;;18.60;99.90;;;;;;6253683;22;20029;-79
2023/07/17 10:28:47;;;;;;;12.85;4.13;;;19.10;99.90;;;;;;6149584;23;20017;-80
2023/07/17 10:31:24;;;;;;;11.18;4.10;;;19.50;99.90;;;;;;6258156;22;20017;-80
2023/07/17 10:33:51;;;;;;;15.85;5.03;;;20.00;99.90;;;;;;6253678;22;20092;-80
2023/07/17 10:36:18;;;;;;;12.63;4.30;;;20.10;99.90;;;;;;6253749;22;20017;-81
2023/07/17 10:38:52;;;;;;;11.85;4.22;;;20.40;99.90;;;;;;6255268;22;20097;-81
2023/07/17 10:41:17;;;;;;;;;;;20.60;99.90;;;;;;6256650;22;20402;-82
2023/07/17 10:43:51;;;;;;;13.45;3.78;;;20.60;99.90;;;;;;6255393;22;19920;-82
2023/07/17 10:46:17;;;;;;;12.93;3.95;;;20.80;99.90;;;;;;6256441;22;20028;-81
2023/07/17 10:48:43;;;;;;;12.40;4.05;;;21.20;99.90;;;;;;6151760;23;20018;-79
2023/07/17 10:51:08;;;;;;;13.05;4.40;;;21.30;99.90;;;;;;6153082;22;20315;-80
2023/07/17 10:53:34;;;;;;;14.43;4.45;;;20.90;99.90;;;;;;6254136;22;20017;-81
2023/07/17 10:55:59;;;;;;;10.95;3.83;;;20.40;99.90;;;;;;6255324;22;20070;-82
2023/07/17 10:58:25;;;;;;;11.68;4.20;;;20.20;99.90;;;;;;6259634;22;20013;-82
2023/07/17 11:00:51;;;;;;;10.38;4.10;;;20.20;99.90;;;;;;6156673;23;20053;-81
2023/07/17 11:03:18;;;;;;;15.00;3.85;;;20.50;99.90;;;;;;6259174;22;20037;-81
2023/07/17 11:05:45;;;;;;;10.45;3.70;;;21.00;99.90;;;;;;6256506;22;20025;-81
2023/07/17 11:08:12;;;;;;;10.18;3.95;;;21.10;99.90;;;;;;6156152;22;20022;-81
2023/07/17 11:10:43;;;;;;;10.73;3.60;;;21.10;99.90;;;;;;6257539;22;20437;-80
2023/07/17 11:13:09;;;;;;;11.02;3.00;;;21.40;99.90;;;;;;6153135;23;20066;-81
2023/07/17 11:15:36;;;;;;;9.23;3.17;;;21.00;99.90;;;;;;6257377;22;20025;-81
2023/07/17 11:18:04;;;;;;;12.05;3.25;;;20.80;99.90;;;;;;6256165;22;20024;-80
2023/07/17 11:20:31;;;;;;;8.45;2.90;;;20.50;99.90;;;;;;6258257;22;20021;-81
2023/07/17 11:22:57;;;;;;;9.73;3.13;;;20.60;99.90;;;;;;6255266;22;20093;-81
2023/07/17 11:25:28;;;;;;;10.35;3.42;;;20.80;99.90;;;;;;6152514;23;20029;-81
2023/07/17 11:27:56;;;;;;;8.77;2.80;;;21.30;99.90;;;;;;6257900;22;20025;-80
2023/07/17 11:30:27;;;;;;;10.25;3.20;;;21.60;99.90;;;;;;6252767;22;20492;-81
2023/07/17 11:32:59;;;;;;;9.43;2.78;;;21.90;99.40;;;;;;6149567;23;20186;-81
2023/07/17 11:35:52;;;;;;;11.50;2.70;;;21.90;97.40;;;;;;6150985;23;20100;-83
2023/07/17 11:38:20;;;;;;;9.20;2.80;;;22.10;97.10;;;;;;6229765;22;20014;-83
2023/07/17 11:40:50;;;;;;;9.35;2.92;;;22.60;99.30;;;;;;6254458;22;20014;-82
2023/07/17 11:43:27;;;;;;;10.15;3.20;;;22.20;98.30;;;;;;6255980;22;20022;-83
2023/07/17 11:45:55;;;;;;;10.18;2.92;;;21.70;97.80;;;;;;6254083;22;20014;-84
2023/07/17 11:48:24;;;;;;;9.90;2.90;;;22.00;99.10;;;;;;6154115;23;20059;-83
2023/07/17 11:50:50;;;;;;;10.30;2.83;;;22.40;98.80;;;;;;6256180;22;20013;-84
2023/07/17 11:53:17;;;;;;;8.88;2.70;;;22.40;99.20;;;;;;6166333;22;20024;-84
2023/07/17 11:55:44;;;;;;;8.43;2.55;;;22.20;98.30;;;;;;6164330;23;20060;-82
2023/07/17 11:58:26;;;;;;;14.00;3.05;;;21.90;98.20;;;;;;6159884;23;20105;-82
2023/07/17 12:00:56;;;;;;;9.55;3.45;;;21.80;97.10;;;;;;6260776;22;20033;-81
2023/07/17 12:03:23;;;;;;;8.93;2.60;;;21.70;97.80;;;;;;6156257;22;20018;-82
2023/07/17 12:05:49;;;;;;;10.07;2.60;;;21.50;98.30;;;;;;6152096;23;20032;-82
2023/07/17 12:08:16;;;;;;;12.20;2.67;;;21.40;97.80;;;;;;6150556;23;20472;-81
2023/07/17 12:10:41;;;;;;;10.07;2.83;;;21.30;97.90;;;;;;6252740;22;20445;-81
2023/07/17 12:13:08;;;;;;;17.17;4.88;;;21.30;98.20;;;;;;6252001;22;20100;-81
2023/07/17 12:15:35;;;;;;;11.18;3.00;;;21.40;99.00;;;;;;6150274;23;20030;-82
2023/07/17 12:18:01;;;;;;;22.83;4.25;;;21.60;99.10;;;;;;6148290;23;20342;-82
2023/07/17 12:20:28;;;;;;;11.35;3.17;;;21.60;99.10;;;;;;6149204;23;20092;-81
2023/07/17 12:22:55;;;;;;;11.95;2.97;;;21.80;99.00;;;;;;6253650;22;20088;-81
2023/07/17 12:25:22;;;;;;;10.25;2.78;;;22.00;99.20;;;;;;6253260;22;20092;-82
2023/07/17 12:27:57;;;;;;;8.55;2.42;;;22.00;98.70;;;;;;6149402;23;20021;-82
2023/07/17 12:30:23;;;;;;;8.85;2.40;;;21.80;97.80;;;;;;6253190;22;20022;-81
2023/07/17 12:32:49;;;;;;;10.60;2.63;;;21.50;98.60;;;;;;6227704;23;20608;-81
2023/07/17 12:35:15;;;;;;;9.95;2.83;;;21.30;98.80;;;;;;6150186;23;20017;-82
2023/07/17 12:53:27;;;;;;;;;;;;;;;;;;;;;
2023/07/17 12:56:27;;;;;;;10.88;3.88;;;17.10;99.90;;;;;;6151929;22;20160;-81
2023/07/17 12:58:53;;;;;;;12.40;4.18;;;17.10;99.90;;;;;;6151908;22;20025;-80
2023/07/17 13:01:19;;;;;;;11.48;3.97;;;17.00;99.90;;;;;;6151846;23;20017;-80
2023/07/17 13:04:04;;;;;;;12.02;4.07;;;17.00;99.90;;;;;;6150574;22;20315;-80